sensor_id;sensor_type;location;lat;lon;timestamp;temperature;humidity
53268;DHT22;39156;51.176;6.738;2022-09-09T00:00:25;17.00;62.20
53268;DHT22;39156;51.176;6.738;2022-09-09T00:03:12;17.00;62.40
53268;DHT22;39156;51.176;6.738;2022-09-09T00:06:42;16.90;62.90
53268;DHT22;39156;51.176;6.738;2022-09-09T00:09:06;16.90;63.20
53268;DHT22;39156;51.176;6.738;2022-09-09T00:11:41;16.90;62.70
53268;DHT22;39156;51.176;6.738;2022-09-09T00:16:55;16.80;63.10
53268;DHT22;39156;51.176;6.738;2022-09-09T00:19:40;16.80;62.80
53268;DHT22;39156;51.176;6.738;2022-09-09T00:22:18;16.80;63.30
53268;DHT22;39156;51.176;6.738;2022-09-09T00:29:54;16.80;64.20
53268;DHT22;39156;51.176;6.738;2022-09-09T00:32:28;16.70;64.20
53268;DHT22;39156;51.176;6.738;2022-09-09T00:35:03;16.70;64.70
53268;DHT22;39156;51.176;6.738;2022-09-09T00:37:48;16.70;64.40
53268;DHT22;39156;51.176;6.738;2022-09-09T00:40:27;16.70;63.70
53268;DHT22;39156;51.176;6.738;2022-09-09T00:43:21;16.70;64.10
53268;DHT22;39156;51.176;6.738;2022-09-09T00:45:53;16.70;64.00
53268;DHT22;39156;51.176;6.738;2022-09-09T00:48:38;16.80;63.90
53268;DHT22;39156;51.176;6.738;2022-09-09T00:51:22;16.80;64.80
53268;DHT22;39156;51.176;6.738;2022-09-09T01:03:05;16.70;64.10
53268;DHT22;39156;51.176;6.738;2022-09-09T01:09:05;16.70;64.60
53268;DHT22;39156;51.176;6.738;2022-09-09T01:12:15;16.70;64.40
53268;DHT22;39156;51.176;6.738;2022-09-09T01:15:00;16.60;64.70
53268;DHT22;39156;51.176;6.738;2022-09-09T01:18:34;16.60;64.50
53268;DHT22;39156;51.176;6.738;2022-09-09T01:20:44;16.60;64.50
53268;DHT22;39156;51.176;6.738;2022-09-09T01:28:46;16.50;64.80
53268;DHT22;39156;51.176;6.738;2022-09-09T01:31:18;16.40;64.70
53268;DHT22;39156;51.176;6.738;2022-09-09T01:33:46;16.40;64.90
53268;DHT22;39156;51.176;6.738;2022-09-09T01:36:29;16.40;64.60
53268;DHT22;39156;51.176;6.738;2022-09-09T01:38:59;16.40;65.10
53268;DHT22;39156;51.176;6.738;2022-09-09T01:41:25;16.40;64.80
53268;DHT22;39156;51.176;6.738;2022-09-09T01:43:52;16.40;64.90
53268;DHT22;39156;51.176;6.738;2022-09-09T01:46:21;16.40;64.70
53268;DHT22;39156;51.176;6.738;2022-09-09T01:48:49;16.40;64.90
53268;DHT22;39156;51.176;6.738;2022-09-09T01:51:15;16.40;64.80
53268;DHT22;39156;51.176;6.738;2022-09-09T01:53:42;16.40;64.60
53268;DHT22;39156;51.176;6.738;2022-09-09T01:56:12;16.40;64.70
53268;DHT22;39156;51.176;6.738;2022-09-09T02:01:45;16.50;64.60
53268;DHT22;39156;51.176;6.738;2022-09-09T02:10:31;16.40;64.80
53268;DHT22;39156;51.176;6.738;2022-09-09T02:13:09;16.50;65.20
53268;DHT22;39156;51.176;6.738;2022-09-09T02:18:15;16.50;65.20
53268;DHT22;39156;51.176;6.738;2022-09-09T02:20:50;16.50;65.00
53268;DHT22;39156;51.176;6.738;2022-09-09T02:23:17;16.50;65.10
53268;DHT22;39156;51.176;6.738;2022-09-09T02:25:45;16.60;65.70
53268;DHT22;39156;51.176;6.738;2022-09-09T02:28:11;16.60;65.10
53268;DHT22;39156;51.176;6.738;2022-09-09T02:30:39;16.60;65.10
53268;DHT22;39156;51.176;6.738;2022-09-09T02:33:07;16.60;64.90
53268;DHT22;39156;51.176;6.738;2022-09-09T02:35:36;16.60;64.90
53268;DHT22;39156;51.176;6.738;2022-09-09T02:38:05;16.50;65.00
53268;DHT22;39156;51.176;6.738;2022-09-09T02:40:33;16.60;65.00
53268;DHT22;39156;51.176;6.738;2022-09-09T02:42:59;16.60;65.00
53268;DHT22;39156;51.176;6.738;2022-09-09T02:45:30;16.50;65.00
53268;DHT22;39156;51.176;6.738;2022-09-09T02:51:05;16.50;65.30
53268;DHT22;39156;51.176;6.738;2022-09-09T02:56:32;16.50;65.10
53268;DHT22;39156;51.176;6.738;2022-09-09T02:59:04;16.40;64.90
53268;DHT22;39156;51.176;6.738;2022-09-09T03:01:30;16.50;65.00
53268;DHT22;39156;51.176;6.738;2022-09-09T03:03:56;16.40;64.90
53268;DHT22;39156;51.176;6.738;2022-09-09T03:06:22;16.40;65.00
53268;DHT22;39156;51.176;6.738;2022-09-09T03:08:48;16.40;64.70
53268;DHT22;39156;51.176;6.738;2022-09-09T03:11:16;16.40;64.80
53268;DHT22;39156;51.176;6.738;2022-09-09T03:13:42;16.40;64.90
53268;DHT22;39156;51.176;6.738;2022-09-09T03:16:07;16.40;64.60
53268;DHT22;39156;51.176;6.738;2022-09-09T03:18:33;16.40;64.80
53268;DHT22;39156;51.176;6.738;2022-09-09T03:21:00;16.40;64.70
53268;DHT22;39156;51.176;6.738;2022-09-09T03:23:26;16.30;64.70
53268;DHT22;39156;51.176;6.738;2022-09-09T03:25:52;16.30;64.60
53268;DHT22;39156;51.176;6.738;2022-09-09T03:28:20;16.30;64.70
53268;DHT22;39156;51.176;6.738;2022-09-09T03:30:46;16.30;64.60
53268;DHT22;39156;51.176;6.738;2022-09-09T03:33:11;16.30;64.80
53268;DHT22;39156;51.176;6.738;2022-09-09T03:35:37;16.30;64.70
53268;DHT22;39156;51.176;6.738;2022-09-09T03:38:04;16.30;64.70
53268;DHT22;39156;51.176;6.738;2022-09-09T03:40:30;16.30;64.70
53268;DHT22;39156;51.176;6.738;2022-09-09T03:42:56;16.30;64.80
53268;DHT22;39156;51.176;6.738;2022-09-09T03:45:22;16.30;64.80
53268;DHT22;39156;51.176;6.738;2022-09-09T03:47:47;16.30;64.80
53268;DHT22;39156;51.176;6.738;2022-09-09T03:50:13;16.30;64.70
53268;DHT22;39156;51.176;6.738;2022-09-09T03:52:40;16.30;64.70
53268;DHT22;39156;51.176;6.738;2022-09-09T03:55:07;16.30;64.70
53268;DHT22;39156;51.176;6.738;2022-09-09T03:57:33;16.20;64.70
53268;DHT22;39156;51.176;6.738;2022-09-09T04:00:02;16.20;64.90
53268;DHT22;39156;51.176;6.738;2022-09-09T04:02:29;16.20;64.90
53268;DHT22;39156;51.176;6.738;2022-09-09T04:04:55;16.20;64.90
53268;DHT22;39156;51.176;6.738;2022-09-09T04:07:21;16.20;65.00
53268;DHT22;39156;51.176;6.738;2022-09-09T04:09:47;16.20;65.00
53268;DHT22;39156;51.176;6.738;2022-09-09T04:12:13;16.20;65.00
53268;DHT22;39156;51.176;6.738;2022-09-09T04:14:39;16.20;65.00
53268;DHT22;39156;51.176;6.738;2022-09-09T04:17:04;16.10;64.90
53268;DHT22;39156;51.176;6.738;2022-09-09T04:19:32;16.20;65.00
53268;DHT22;39156;51.176;6.738;2022-09-09T04:21:58;16.20;65.10
53268;DHT22;39156;51.176;6.738;2022-09-09T04:24:24;16.20;65.10
53268;DHT22;39156;51.176;6.738;2022-09-09T04:26:51;16.20;65.10
53268;DHT22;39156;51.176;6.738;2022-09-09T04:29:17;16.20;65.10
53268;DHT22;39156;51.176;6.738;2022-09-09T04:31:43;16.20;65.10
53268;DHT22;39156;51.176;6.738;2022-09-09T04:34:09;16.20;65.10
53268;DHT22;39156;51.176;6.738;2022-09-09T04:36:35;16.20;65.20
53268;DHT22;39156;51.176;6.738;2022-09-09T04:39:01;16.20;65.30
53268;DHT22;39156;51.176;6.738;2022-09-09T04:41:28;16.20;65.20
53268;DHT22;39156;51.176;6.738;2022-09-09T04:43:54;16.20;65.30
53268;DHT22;39156;51.176;6.738;2022-09-09T04:46:21;16.20;65.30
53268;DHT22;39156;51.176;6.738;2022-09-09T04:48:48;16.20;65.40
53268;DHT22;39156;51.176;6.738;2022-09-09T04:51:15;16.20;65.30
53268;DHT22;39156;51.176;6.738;2022-09-09T04:53:41;16.20;65.40
53268;DHT22;39156;51.176;6.738;2022-09-09T04:56:11;16.20;65.50
53268;DHT22;39156;51.176;6.738;2022-09-09T04:58:39;16.20;65.70
53268;DHT22;39156;51.176;6.738;2022-09-09T05:01:10;16.20;65.50
53268;DHT22;39156;51.176;6.738;2022-09-09T05:03:40;16.20;65.60
53268;DHT22;39156;51.176;6.738;2022-09-09T05:06:08;16.20;65.60
53268;DHT22;39156;51.176;6.738;2022-09-09T05:08:39;16.20;65.60
53268;DHT22;39156;51.176;6.738;2022-09-09T05:11:16;16.20;65.80
53268;DHT22;39156;51.176;6.738;2022-09-09T05:13:44;16.20;66.00
53268;DHT22;39156;51.176;6.738;2022-09-09T05:16:10;16.20;65.80
53268;DHT22;39156;51.176;6.738;2022-09-09T05:18:39;16.20;65.80
53268;DHT22;39156;51.176;6.738;2022-09-09T05:21:06;16.20;65.90
53268;DHT22;39156;51.176;6.738;2022-09-09T05:23:35;16.20;65.90
53268;DHT22;39156;51.176;6.738;2022-09-09T05:26:01;16.20;66.10
53268;DHT22;39156;51.176;6.738;2022-09-09T05:28:28;16.20;65.90
53268;DHT22;39156;51.176;6.738;2022-09-09T05:31:08;16.30;66.00
53268;DHT22;39156;51.176;6.738;2022-09-09T05:33:37;16.30;66.20
53268;DHT22;39156;51.176;6.738;2022-09-09T05:36:05;16.30;66.00
53268;DHT22;39156;51.176;6.738;2022-09-09T05:38:36;16.30;66.00
53268;DHT22;39156;51.176;6.738;2022-09-09T05:41:03;16.30;65.90
53268;DHT22;39156;51.176;6.738;2022-09-09T05:43:29;16.40;65.90
53268;DHT22;39156;51.176;6.738;2022-09-09T05:46:09;16.40;65.90
53268;DHT22;39156;51.176;6.738;2022-09-09T05:48:46;16.40;66.00
53268;DHT22;39156;51.176;6.738;2022-09-09T05:51:16;16.40;65.80
53268;DHT22;39156;51.176;6.738;2022-09-09T05:53:45;16.40;65.80
53268;DHT22;39156;51.176;6.738;2022-09-09T05:56:16;16.50;65.90
53268;DHT22;39156;51.176;6.738;2022-09-09T05:58:43;16.50;65.90
53268;DHT22;39156;51.176;6.738;2022-09-09T06:01:12;16.60;65.90
53268;DHT22;39156;51.176;6.738;2022-09-09T06:03:41;16.60;65.70
53268;DHT22;39156;51.176;6.738;2022-09-09T06:06:10;16.70;65.60
53268;DHT22;39156;51.176;6.738;2022-09-09T06:08:39;16.70;65.50
53268;DHT22;39156;51.176;6.738;2022-09-09T06:11:11;16.70;65.50
53268;DHT22;39156;51.176;6.738;2022-09-09T06:13:44;16.80;65.30
53268;DHT22;39156;51.176;6.738;2022-09-09T06:16:17;16.80;65.20
53268;DHT22;39156;51.176;6.738;2022-09-09T06:18:43;16.90;65.20
53268;DHT22;39156;51.176;6.738;2022-09-09T06:21:24;17.00;65.20
53268;DHT22;39156;51.176;6.738;2022-09-09T06:23:51;17.10;65.30
53268;DHT22;39156;51.176;6.738;2022-09-09T06:26:20;17.20;65.00
53268;DHT22;39156;51.176;6.738;2022-09-09T06:28:48;17.20;64.70
53268;DHT22;39156;51.176;6.738;2022-09-09T06:31:17;17.30;64.30
53268;DHT22;39156;51.176;6.738;2022-09-09T06:33:46;17.40;64.10
53268;DHT22;39156;51.176;6.738;2022-09-09T06:36:15;17.40;63.90
53268;DHT22;39156;51.176;6.738;2022-09-09T06:38:48;17.50;64.00
53268;DHT22;39156;51.176;6.738;2022-09-09T06:41:16;17.70;64.00
53268;DHT22;39156;51.176;6.738;2022-09-09T06:43:43;17.80;63.70
53268;DHT22;39156;51.176;6.738;2022-09-09T06:46:14;18.00;63.50
53268;DHT22;39156;51.176;6.738;2022-09-09T06:48:42;18.20;63.30
53268;DHT22;39156;51.176;6.738;2022-09-09T06:51:16;18.50;62.90
53268;DHT22;39156;51.176;6.738;2022-09-09T06:53:45;18.70;62.50
53268;DHT22;39156;51.176;6.738;2022-09-09T06:58:40;19.30;62.70
53268;DHT22;39156;51.176;6.738;2022-09-09T07:01:08;19.70;61.00
53268;DHT22;39156;51.176;6.738;2022-09-09T07:03:35;20.10;60.10
53268;DHT22;39156;51.176;6.738;2022-09-09T07:06:01;20.30;58.60
53268;DHT22;39156;51.176;6.738;2022-09-09T07:08:27;20.50;58.00
53268;DHT22;39156;51.176;6.738;2022-09-09T07:10:53;20.70;56.80
53268;DHT22;39156;51.176;6.738;2022-09-09T07:13:28;20.80;56.50
53268;DHT22;39156;51.176;6.738;2022-09-09T07:15:54;20.90;55.50
53268;DHT22;39156;51.176;6.738;2022-09-09T07:18:20;20.90;55.30
53268;DHT22;39156;51.176;6.738;2022-09-09T07:20:55;21.00;55.00
53268;DHT22;39156;51.176;6.738;2022-09-09T07:23:21;21.00;54.10
53268;DHT22;39156;51.176;6.738;2022-09-09T07:25:47;21.00;54.00
53268;DHT22;39156;51.176;6.738;2022-09-09T07:28:13;21.00;54.10
53268;DHT22;39156;51.176;6.738;2022-09-09T07:30:40;21.10;53.70
53268;DHT22;39156;51.176;6.738;2022-09-09T07:33:06;21.20;54.80
53268;DHT22;39156;51.176;6.738;2022-09-09T07:35:32;21.40;54.60
53268;DHT22;39156;51.176;6.738;2022-09-09T07:38:00;21.50;53.80
53268;DHT22;39156;51.176;6.738;2022-09-09T07:40:26;21.70;53.20
53268;DHT22;39156;51.176;6.738;2022-09-09T07:42:52;21.80;52.80
53268;DHT22;39156;51.176;6.738;2022-09-09T07:45:19;21.90;52.10
53268;DHT22;39156;51.176;6.738;2022-09-09T07:47:44;21.80;51.00
53268;DHT22;39156;51.176;6.738;2022-09-09T07:50:10;21.80;51.10
53268;DHT22;39156;51.176;6.738;2022-09-09T07:52:36;21.80;51.20
53268;DHT22;39156;51.176;6.738;2022-09-09T07:55:03;21.80;52.40
53268;DHT22;39156;51.176;6.738;2022-09-09T07:57:30;21.60;51.00
53268;DHT22;39156;51.176;6.738;2022-09-09T07:59:56;21.50;50.60
53268;DHT22;39156;51.176;6.738;2022-09-09T08:02:23;21.40;50.30
53268;DHT22;39156;51.176;6.738;2022-09-09T08:04:51;21.30;49.80
53268;DHT22;39156;51.176;6.738;2022-09-09T08:07:17;21.20;49.90
53268;DHT22;39156;51.176;6.738;2022-09-09T08:09:43;21.00;50.00
53268;DHT22;39156;51.176;6.738;2022-09-09T08:12:09;21.00;50.20
53268;DHT22;39156;51.176;6.738;2022-09-09T08:14:38;20.90;50.30
53268;DHT22;39156;51.176;6.738;2022-09-09T08:17:04;20.80;50.60
53268;DHT22;39156;51.176;6.738;2022-09-09T08:19:30;20.80;50.70
53268;DHT22;39156;51.176;6.738;2022-09-09T08:21:58;20.80;50.90
53268;DHT22;39156;51.176;6.738;2022-09-09T08:24:24;20.90;50.90
53268;DHT22;39156;51.176;6.738;2022-09-09T08:26:49;20.90;51.20
53268;DHT22;39156;51.176;6.738;2022-09-09T08:29:15;21.10;51.80
53268;DHT22;39156;51.176;6.738;2022-09-09T08:31:47;21.30;51.90
53268;DHT22;39156;51.176;6.738;2022-09-09T08:34:18;21.60;50.70
53268;DHT22;39156;51.176;6.738;2022-09-09T08:36:46;21.90;51.20
53268;DHT22;39156;51.176;6.738;2022-09-09T08:39:20;22.10;50.40
53268;DHT22;39156;51.176;6.738;2022-09-09T08:42:05;22.40;50.00
53268;DHT22;39156;51.176;6.738;2022-09-09T08:50:30;22.90;47.50
53268;DHT22;39156;51.176;6.738;2022-09-09T08:53:28;22.90;47.70
53268;DHT22;39156;51.176;6.738;2022-09-09T08:56:11;22.90;46.80
53268;DHT22;39156;51.176;6.738;2022-09-09T08:58:53;22.80;46.40
53268;DHT22;39156;51.176;6.738;2022-09-09T09:10:02;22.40;47.60
53268;DHT22;39156;51.176;6.738;2022-09-09T09:12:42;22.30;46.60
53268;DHT22;39156;51.176;6.738;2022-09-09T09:15:31;22.10;46.50
53268;DHT22;39156;51.176;6.738;2022-09-09T09:18:02;22.00;46.90
53268;DHT22;39156;51.176;6.738;2022-09-09T09:21:21;21.80;47.10
53268;DHT22;39156;51.176;6.738;2022-09-09T09:26:43;21.50;46.90
53268;DHT22;39156;51.176;6.738;2022-09-09T09:29:15;21.40;47.10
53268;DHT22;39156;51.176;6.738;2022-09-09T09:31:52;21.30;47.00
53268;DHT22;39156;51.176;6.738;2022-09-09T09:34:22;21.30;46.90
53268;DHT22;39156;51.176;6.738;2022-09-09T09:36:57;21.30;47.90
53268;DHT22;39156;51.176;6.738;2022-09-09T09:39:26;21.40;47.80
53268;DHT22;39156;51.176;6.738;2022-09-09T09:41:52;21.70;48.30
53268;DHT22;39156;51.176;6.738;2022-09-09T09:44:28;22.00;49.20
53268;DHT22;39156;51.176;6.738;2022-09-09T09:47:12;22.50;47.70
53268;DHT22;39156;51.176;6.738;2022-09-09T09:49:50;23.00;46.70
53268;DHT22;39156;51.176;6.738;2022-09-09T09:52:26;23.40;47.30
53268;DHT22;39156;51.176;6.738;2022-09-09T09:54:54;23.80;46.30
53268;DHT22;39156;51.176;6.738;2022-09-09T09:57:28;24.10;45.50
53268;DHT22;39156;51.176;6.738;2022-09-09T10:00:13;24.30;44.20
53268;DHT22;39156;51.176;6.738;2022-09-09T10:02:41;24.50;43.60
53268;DHT22;39156;51.176;6.738;2022-09-09T10:05:23;24.60;43.80
53268;DHT22;39156;51.176;6.738;2022-09-09T10:10:37;24.70;42.60
53268;DHT22;39156;51.176;6.738;2022-09-09T10:13:31;24.60;42.80
53268;DHT22;39156;51.176;6.738;2022-09-09T10:19:36;24.60;42.70
53268;DHT22;39156;51.176;6.738;2022-09-09T10:22:24;24.60;43.00
53268;DHT22;39156;51.176;6.738;2022-09-09T10:31:02;24.40;41.80
53268;DHT22;39156;51.176;6.738;2022-09-09T10:33:50;24.30;42.10
53268;DHT22;39156;51.176;6.738;2022-09-09T10:36:25;24.20;42.30
53268;DHT22;39156;51.176;6.738;2022-09-09T10:42:06;24.00;43.10
53268;DHT22;39156;51.176;6.738;2022-09-09T10:45:02;23.90;42.60
53268;DHT22;39156;51.176;6.738;2022-09-09T10:47:57;23.80;42.70
53268;DHT22;39156;51.176;6.738;2022-09-09T10:50:46;23.70;42.90
53268;DHT22;39156;51.176;6.738;2022-09-09T10:53:32;23.60;43.40
53268;DHT22;39156;51.176;6.738;2022-09-09T10:56:07;23.50;43.40
53268;DHT22;39156;51.176;6.738;2022-09-09T10:58:44;23.40;43.20
53268;DHT22;39156;51.176;6.738;2022-09-09T11:01:28;23.30;43.20
53268;DHT22;39156;51.176;6.738;2022-09-09T11:04:02;23.30;43.20
53268;DHT22;39156;51.176;6.738;2022-09-09T11:06:37;23.30;43.40
53268;DHT22;39156;51.176;6.738;2022-09-09T11:09:05;23.10;43.40
53268;DHT22;39156;51.176;6.738;2022-09-09T11:11:39;23.00;43.70
53268;DHT22;39156;51.176;6.738;2022-09-09T11:14:15;23.00;43.80
53268;DHT22;39156;51.176;6.738;2022-09-09T11:17:01;22.90;44.00
53268;DHT22;39156;51.176;6.738;2022-09-09T11:19:41;22.80;43.90
53268;DHT22;39156;51.176;6.738;2022-09-09T11:31:06;22.40;46.80
53268;DHT22;39156;51.176;6.738;2022-09-09T11:36:43;22.40;46.80
53268;DHT22;39156;51.176;6.738;2022-09-09T11:39:44;22.50;45.90
53268;DHT22;39156;51.176;6.738;2022-09-09T11:42:22;22.60;45.50
53268;DHT22;39156;51.176;6.738;2022-09-09T11:44:49;22.70;45.90
53268;DHT22;39156;51.176;6.738;2022-09-09T11:50:09;22.80;45.50
53268;DHT22;39156;51.176;6.738;2022-09-09T11:52:43;22.90;45.50
53268;DHT22;39156;51.176;6.738;2022-09-09T11:55:28;22.90;45.20
53268;DHT22;39156;51.176;6.738;2022-09-09T11:58:17;22.80;45.50
53268;DHT22;39156;51.176;6.738;2022-09-09T12:00:46;22.80;45.80
53268;DHT22;39156;51.176;6.738;2022-09-09T12:03:36;22.70;45.80
53268;DHT22;39156;51.176;6.738;2022-09-09T12:06:30;22.70;45.30
53268;DHT22;39156;51.176;6.738;2022-09-09T12:09:48;22.60;45.80
53268;DHT22;39156;51.176;6.738;2022-09-09T12:12:28;22.60;45.60
53268;DHT22;39156;51.176;6.738;2022-09-09T12:15:23;22.70;45.80
53268;DHT22;39156;51.176;6.738;2022-09-09T12:17:50;22.70;45.40
53268;DHT22;39156;51.176;6.738;2022-09-09T12:34:20;23.00;44.50
53268;DHT22;39156;51.176;6.738;2022-09-09T12:37:16;23.00;44.40
53268;DHT22;39156;51.176;6.738;2022-09-09T12:40:01;23.00;44.50
53268;DHT22;39156;51.176;6.738;2022-09-09T12:42:46;23.00;44.40
53268;DHT22;39156;51.176;6.738;2022-09-09T12:45:17;23.00;44.70
53268;DHT22;39156;51.176;6.738;2022-09-09T12:47:57;23.00;44.70
53268;DHT22;39156;51.176;6.738;2022-09-09T12:50:34;22.90;44.70
53268;DHT22;39156;51.176;6.738;2022-09-09T12:53:07;22.90;44.90
53268;DHT22;39156;51.176;6.738;2022-09-09T12:55:59;22.80;45.10
53268;DHT22;39156;51.176;6.738;2022-09-09T12:58:29;22.80;45.50
53268;DHT22;39156;51.176;6.738;2022-09-09T13:00:59;22.80;45.80
53268;DHT22;39156;51.176;6.738;2022-09-09T13:03:26;22.80;45.90
53268;DHT22;39156;51.176;6.738;2022-09-09T13:05:53;22.80;46.50
53268;DHT22;39156;51.176;6.738;2022-09-09T13:08:23;22.90;46.90
53268;DHT22;39156;51.176;6.738;2022-09-09T13:10:51;23.00;47.00
53268;DHT22;39156;51.176;6.738;2022-09-09T13:13:22;23.20;47.00
53268;DHT22;39156;51.176;6.738;2022-09-09T13:15:49;23.20;46.10
53268;DHT22;39156;51.176;6.738;2022-09-09T13:18:16;23.40;45.70
53268;DHT22;39156;51.176;6.738;2022-09-09T13:20:47;23.50;45.70
53268;DHT22;39156;51.176;6.738;2022-09-09T13:23:13;23.50;45.70
53268;DHT22;39156;51.176;6.738;2022-09-09T13:25:39;23.60;45.50
53268;DHT22;39156;51.176;6.738;2022-09-09T13:28:18;23.60;45.50
53268;DHT22;39156;51.176;6.738;2022-09-09T13:30:54;23.60;45.30
53268;DHT22;39156;51.176;6.738;2022-09-09T13:33:31;23.70;45.80
53268;DHT22;39156;51.176;6.738;2022-09-09T13:36:03;23.70;45.50
53268;DHT22;39156;51.176;6.738;2022-09-09T13:38:31;23.70;45.40
53268;DHT22;39156;51.176;6.738;2022-09-09T13:41:06;23.70;45.60
53268;DHT22;39156;51.176;6.738;2022-09-09T13:43:37;23.60;45.50
53268;DHT22;39156;51.176;6.738;2022-09-09T13:46:05;23.70;45.50
53268;DHT22;39156;51.176;6.738;2022-09-09T13:48:57;23.60;45.30
53268;DHT22;39156;51.176;6.738;2022-09-09T13:51:34;23.60;45.40
53268;DHT22;39156;51.176;6.738;2022-09-09T13:54:00;23.60;45.60
53268;DHT22;39156;51.176;6.738;2022-09-09T13:56:26;23.60;45.90
53268;DHT22;39156;51.176;6.738;2022-09-09T13:58:52;23.50;46.20
53268;DHT22;39156;51.176;6.738;2022-09-09T14:01:17;23.40;45.90
53268;DHT22;39156;51.176;6.738;2022-09-09T14:03:43;23.40;45.80
53268;DHT22;39156;51.176;6.738;2022-09-09T14:06:09;23.30;46.00
53268;DHT22;39156;51.176;6.738;2022-09-09T14:08:36;23.30;45.90
53268;DHT22;39156;51.176;6.738;2022-09-09T14:11:05;23.30;45.80
53268;DHT22;39156;51.176;6.738;2022-09-09T14:13:32;23.30;46.10
53268;DHT22;39156;51.176;6.738;2022-09-09T14:15:58;23.20;45.70
53268;DHT22;39156;51.176;6.738;2022-09-09T14:18:23;23.30;45.60
53268;DHT22;39156;51.176;6.738;2022-09-09T14:20:50;23.30;45.80
53268;DHT22;39156;51.176;6.738;2022-09-09T14:23:16;23.30;45.60
53268;DHT22;39156;51.176;6.738;2022-09-09T14:25:43;23.20;45.60
53268;DHT22;39156;51.176;6.738;2022-09-09T14:28:12;23.20;45.70
53268;DHT22;39156;51.176;6.738;2022-09-09T14:30:39;23.10;45.30
53268;DHT22;39156;51.176;6.738;2022-09-09T14:33:06;23.10;45.60
53268;DHT22;39156;51.176;6.738;2022-09-09T14:35:32;23.10;45.70
53268;DHT22;39156;51.176;6.738;2022-09-09T14:37:58;22.90;45.60
53268;DHT22;39156;51.176;6.738;2022-09-09T14:40:26;22.80;45.60
53268;DHT22;39156;51.176;6.738;2022-09-09T14:42:52;22.60;45.70
53268;DHT22;39156;51.176;6.738;2022-09-09T14:45:18;22.50;45.90
53268;DHT22;39156;51.176;6.738;2022-09-09T14:47:43;22.20;46.00
53268;DHT22;39156;51.176;6.738;2022-09-09T14:50:10;22.00;46.10
53268;DHT22;39156;51.176;6.738;2022-09-09T14:52:37;21.80;46.20
53268;DHT22;39156;51.176;6.738;2022-09-09T14:55:03;21.60;46.10
53268;DHT22;39156;51.176;6.738;2022-09-09T14:57:30;21.30;47.90
53268;DHT22;39156;51.176;6.738;2022-09-09T14:59:56;21.00;47.00
53268;DHT22;39156;51.176;6.738;2022-09-09T15:02:22;20.80;48.30
53268;DHT22;39156;51.176;6.738;2022-09-09T15:04:47;20.50;48.80
53268;DHT22;39156;51.176;6.738;2022-09-09T15:07:15;20.40;48.90
53268;DHT22;39156;51.176;6.738;2022-09-09T15:09:42;20.20;49.00
53268;DHT22;39156;51.176;6.738;2022-09-09T15:12:07;20.10;49.20
53268;DHT22;39156;51.176;6.738;2022-09-09T15:14:34;20.00;49.60
53268;DHT22;39156;51.176;6.738;2022-09-09T15:17:00;19.90;50.00
53268;DHT22;39156;51.176;6.738;2022-09-09T15:19:26;19.90;50.30
53268;DHT22;39156;51.176;6.738;2022-09-09T15:21:52;19.90;50.70
53268;DHT22;39156;51.176;6.738;2022-09-09T15:24:17;20.00;51.20
53268;DHT22;39156;51.176;6.738;2022-09-09T15:26:43;19.90;50.70
53268;DHT22;39156;51.176;6.738;2022-09-09T15:29:09;20.00;51.10
53268;DHT22;39156;51.176;6.738;2022-09-09T15:31:35;20.10;51.20
53268;DHT22;39156;51.176;6.738;2022-09-09T15:34:01;20.10;51.50
53268;DHT22;39156;51.176;6.738;2022-09-09T15:36:29;20.10;51.60
53268;DHT22;39156;51.176;6.738;2022-09-09T15:38:57;20.10;51.40
53268;DHT22;39156;51.176;6.738;2022-09-09T15:41:24;20.10;51.50
53268;DHT22;39156;51.176;6.738;2022-09-09T15:43:50;20.10;52.60
53268;DHT22;39156;51.176;6.738;2022-09-09T15:48:45;20.10;54.20
53268;DHT22;39156;51.176;6.738;2022-09-09T15:51:11;20.00;53.40
53268;DHT22;39156;51.176;6.738;2022-09-09T15:53:37;20.00;53.30
53268;DHT22;39156;51.176;6.738;2022-09-09T15:56:05;19.90;52.90
53268;DHT22;39156;51.176;6.738;2022-09-09T15:58:32;19.80;51.80
53268;DHT22;39156;51.176;6.738;2022-09-09T16:01:16;19.70;52.10
53268;DHT22;39156;51.176;6.738;2022-09-09T16:03:42;19.70;52.40
53268;DHT22;39156;51.176;6.738;2022-09-09T16:06:10;19.60;52.60
53268;DHT22;39156;51.176;6.738;2022-09-09T16:08:37;19.60;53.00
53268;DHT22;39156;51.176;6.738;2022-09-09T16:11:05;19.50;53.20
53268;DHT22;39156;51.176;6.738;2022-09-09T16:13:33;19.50;52.90
53268;DHT22;39156;51.176;6.738;2022-09-09T16:15:59;19.50;52.80
53268;DHT22;39156;51.176;6.738;2022-09-09T16:18:24;19.50;53.20
53268;DHT22;39156;51.176;6.738;2022-09-09T16:20:54;19.40;53.20
53268;DHT22;39156;51.176;6.738;2022-09-09T16:23:20;19.40;53.80
53268;DHT22;39156;51.176;6.738;2022-09-09T16:25:54;19.40;53.90
53268;DHT22;39156;51.176;6.738;2022-09-09T16:28:20;19.40;52.70
53268;DHT22;39156;51.176;6.738;2022-09-09T16:30:46;19.40;52.10
53268;DHT22;39156;51.176;6.738;2022-09-09T16:33:12;19.30;54.10
53268;DHT22;39156;51.176;6.738;2022-09-09T16:35:40;19.30;51.60
53268;DHT22;39156;51.176;6.738;2022-09-09T16:38:06;19.20;52.10
53268;DHT22;39156;51.176;6.738;2022-09-09T16:40:41;19.30;53.10
53268;DHT22;39156;51.176;6.738;2022-09-09T16:43:07;19.20;53.70
53268;DHT22;39156;51.176;6.738;2022-09-09T16:45:34;19.20;53.60
53268;DHT22;39156;51.176;6.738;2022-09-09T16:48:06;19.10;53.80
53268;DHT22;39156;51.176;6.738;2022-09-09T16:50:32;19.10;54.00
53268;DHT22;39156;51.176;6.738;2022-09-09T16:52:57;19.10;54.40
53268;DHT22;39156;51.176;6.738;2022-09-09T16:55:23;19.10;54.20
53268;DHT22;39156;51.176;6.738;2022-09-09T16:57:49;19.20;54.40
53268;DHT22;39156;51.176;6.738;2022-09-09T17:00:15;19.20;54.60
53268;DHT22;39156;51.176;6.738;2022-09-09T17:02:43;19.20;54.50
53268;DHT22;39156;51.176;6.738;2022-09-09T17:05:10;19.20;54.50
53268;DHT22;39156;51.176;6.738;2022-09-09T17:07:37;19.30;54.80
53268;DHT22;39156;51.176;6.738;2022-09-09T17:10:04;19.20;54.80
53268;DHT22;39156;51.176;6.738;2022-09-09T17:12:31;19.30;54.60
53268;DHT22;39156;51.176;6.738;2022-09-09T17:14:57;19.20;54.40
53268;DHT22;39156;51.176;6.738;2022-09-09T17:17:24;19.30;55.40
53268;DHT22;39156;51.176;6.738;2022-09-09T17:19:51;19.20;55.10
53268;DHT22;39156;51.176;6.738;2022-09-09T17:22:17;19.20;55.50
53268;DHT22;39156;51.176;6.738;2022-09-09T17:24:45;19.20;55.00
53268;DHT22;39156;51.176;6.738;2022-09-09T17:27:11;19.10;55.30
53268;DHT22;39156;51.176;6.738;2022-09-09T17:29:38;19.10;55.40
53268;DHT22;39156;51.176;6.738;2022-09-09T17:32:04;19.10;55.80
53268;DHT22;39156;51.176;6.738;2022-09-09T17:34:33;19.00;56.30
53268;DHT22;39156;51.176;6.738;2022-09-09T17:36:59;19.00;57.00
53268;DHT22;39156;51.176;6.738;2022-09-09T17:39:25;18.90;56.40
53268;DHT22;39156;51.176;6.738;2022-09-09T17:41:51;18.90;56.30
53268;DHT22;39156;51.176;6.738;2022-09-09T17:44:17;18.90;56.90